.
WxDataArchive / Data Records for 2015-12-07
2015-12-06 December 2015 2015-12-08

Data Records for Monday, 07 December 2015

Time	Temp	Chill	HIndex	Humid	Dewpt	 Wind 	HiWind	WindDir	Rain 	Barom
-----	----	-----	------	-----	-----	------	------	-------	-----	-----
00:00	31.3	31.3	31.3	91	29.0	0	0	---	0.00	30.208 
00:05	31.2	31.2	31.2	90	28.6	0	0	---	0.00	30.208 
00:10	31.0	31.0	31.0	91	28.7	0	0	---	0.00	30.208 
00:15	30.9	30.9	30.9	90	28.3	0	0	---	0.00	30.203 
00:20	30.6	30.6	30.6	91	28.3	0	0	---	0.00	30.203 
00:25	30.4	30.4	30.4	91	28.1	0	0	---	0.00	30.203 
00:30	30.4	30.4	30.4	91	28.1	0	0	---	0.00	30.202 
00:35	30.3	30.3	30.3	91	28.0	0	0	---	0.00	30.202 
00:40	30.1	30.1	30.1	91	27.8	0	0	---	0.00	30.202 
00:45	30.1	30.1	30.1	91	27.8	0	0	---	0.00	30.202 
00:50	30.1	30.1	30.1	91	27.8	0	0	---	0.00	30.202 
00:55	30.0	30.0	30.0	91	27.7	0	0	---	0.00	30.202 
01:00	30.0	30.0	30.0	91	27.7	0	0	---	0.00	30.194 
01:05	30.0	30.0	30.0	91	27.7	0	0	---	0.00	30.194 
01:10	30.0	30.0	30.0	91	27.7	0	0	---	0.00	30.194 
01:15	30.0	30.0	30.0	91	27.7	0	0	---	0.00	30.186 
01:20	30.1	30.1	30.1	92	28.1	0	0	---	0.00	30.186 
01:25	30.1	30.1	30.1	92	28.1	0	0	---	0.00	30.186 
01:30	30.3	30.3	30.3	92	28.3	0	0	---	0.00	30.181 
01:35	30.4	30.4	30.4	92	28.4	0	0	---	0.00	30.181 
01:40	30.6	30.6	30.6	92	28.6	0	0	---	0.00	30.181 
01:45	30.7	30.7	30.7	92	28.7	0	0	---	0.00	30.175 
01:50	31.0	31.0	31.0	92	29.0	0	0	---	0.00	30.175 
01:55	31.2	31.2	31.2	92	29.2	0	0	---	0.00	30.175 
02:00	31.3	31.3	31.3	92	29.3	0	0	---	0.00	30.175 
02:05	31.3	31.3	31.3	92	29.3	0	0	---	0.00	30.175 
02:10	31.5	31.5	31.5	92	29.4	0	0	---	0.00	30.175 
02:15	31.6	31.6	31.6	92	29.5	0	0	---	0.00	30.169 
02:20	31.8	31.8	31.8	92	29.7	0	0	---	0.00	30.169 
02:25	31.9	31.9	31.9	92	29.8	0	0	---	0.00	30.169 
02:30	31.9	31.9	31.9	92	29.8	0	0	---	0.00	30.167 
02:35	32.2	32.2	32.2	92	30.1	0	0	---	0.00	30.167 
02:40	32.2	32.2	32.2	92	30.1	0	0	---	0.00	30.167 
02:45	32.4	32.4	32.4	93	30.6	0	0	---	0.00	30.168 
02:50	32.5	32.5	32.5	93	30.7	0	0	---	0.00	30.168 
02:55	32.7	32.7	32.7	93	30.9	0	0	---	0.00	30.168 
03:00	32.8	32.8	32.8	93	31.0	0	0	---	0.00	30.168 
03:05	33.1	33.1	33.1	93	31.3	0	0	---	0.00	30.168 
03:10	33.1	33.1	33.1	93	31.3	0	0	---	0.00	30.168 
03:15	33.4	33.4	33.4	93	31.6	0	0	---	0.00	30.168 
03:20	33.5	33.5	33.5	93	31.7	0	0	---	0.00	30.168 
03:25	33.7	33.7	33.7	93	31.9	0	0	---	0.00	30.168 
03:30	33.7	33.7	33.7	93	31.9	0	0	---	0.00	30.166 
03:35	33.7	33.7	33.7	93	31.9	0	0	---	0.00	30.166 
03:40	33.7	33.7	33.7	93	31.9	0	0	---	0.00	30.166 
03:45	33.7	33.7	33.7	93	31.9	0	0	---	0.00	30.164 
03:50	33.7	33.7	33.7	93	31.9	0	0	---	0.00	30.164 
03:55	33.5	33.5	33.5	93	31.7	0	0	---	0.00	30.164 
04:00	33.5	33.5	33.5	93	31.7	0	0	---	0.00	30.162 
04:05	33.5	33.5	33.5	93	31.7	0	0	---	0.00	30.162 
04:10	33.5	33.5	33.5	93	31.7	0	0	---	0.00	30.162 
04:15	33.5	33.5	33.5	93	31.7	0	0	---	0.00	30.162 
04:20	33.5	33.5	33.5	93	31.7	0	0	---	0.00	30.162 
04:25	33.4	33.4	33.4	93	31.6	0	0	---	0.00	30.162 
04:30	33.2	33.2	33.2	93	31.4	0	0	---	0.00	30.163 
04:35	32.9	32.9	32.9	93	31.1	0	0	---	0.00	30.163 
04:40	32.7	32.7	32.7	93	30.9	0	0	---	0.00	30.163 
04:45	32.5	32.5	32.5	93	30.7	0	0	---	0.00	30.163 
04:50	32.2	32.2	32.2	93	30.4	0	0	---	0.00	30.163 
04:55	32.1	32.1	32.1	93	30.3	0	0	---	0.00	30.163 
05:00	32.1	32.1	32.1	93	30.3	0	0	---	0.00	30.163 
05:05	31.9	31.9	31.9	93	30.1	0	0	---	0.00	30.163 
05:10	31.8	31.8	31.8	93	30.0	0	0	---	0.00	30.163 
05:15	31.5	31.5	31.5	93	29.7	0	0	---	0.00	30.168 
05:20	31.3	31.3	31.3	93	29.5	0	0	---	0.00	30.168 
05:25	31.2	31.2	31.2	93	29.4	0	0	---	0.00	30.168 
05:30	31.0	31.0	31.0	93	29.2	0	0	---	0.00	30.172 
05:35	30.7	30.7	30.7	93	28.9	0	0	---	0.00	30.172 
05:40	30.6	30.6	30.6	93	28.8	0	0	---	0.00	30.172 
05:45	30.4	30.4	30.4	93	28.6	0	0	---	0.00	30.175 
05:50	30.4	30.4	30.4	93	28.6	0	0	---	0.00	30.175 
05:55	30.6	30.6	30.6	93	28.8	0	0	---	0.00	30.175 
06:00	30.6	30.6	30.6	93	28.8	0	0	---	0.00	30.176 
06:05	30.4	30.4	30.4	93	28.6	0	0	---	0.00	30.176 
06:10	30.3	30.3	30.3	93	28.5	0	0	---	0.00	30.176 
06:15	30.3	30.3	30.3	93	28.5	0	0	---	0.00	30.187 
06:20	30.1	30.1	30.1	93	28.3	0	0	---	0.00	30.187 
06:25	30.1	30.1	30.1	93	28.3	0	0	---	0.00	30.187 
06:30	30.3	30.3	30.3	93	28.5	0	0	---	0.00	30.192 
06:35	30.7	30.7	30.7	93	28.9	0	0	---	0.00	30.192 
06:40	31.0	31.0	31.0	94	29.5	0	0	---	0.00	30.192 
06:45	31.0	31.0	31.0	93	29.2	0	0	---	0.00	30.190 
06:50	31.0	31.0	31.0	93	29.2	0	0	---	0.00	30.190 
06:55	31.2	31.2	31.2	93	29.4	0	0	---	0.00	30.190 
07:00	31.3	31.3	31.3	94	29.8	0	0	---	0.00	30.197 
07:05	31.5	31.5	31.5	93	29.7	0	0	---	0.00	30.197 
07:10	31.3	31.3	31.3	93	29.5	0	0	---	0.00	30.197 
07:15	31.2	31.2	31.2	93	29.4	0	0	---	0.00	30.198 
07:20	31.0	31.0	31.0	93	29.2	0	0	---	0.00	30.198 
07:25	31.0	31.0	31.0	93	29.2	0	0	---	0.00	30.198 
07:30	31.0	31.0	31.0	93	29.2	0	0	---	0.00	30.196 
07:35	30.9	30.9	30.9	93	29.1	0	0	---	0.00	30.196 
07:40	30.7	30.7	30.7	93	28.9	0	0	---	0.00	30.196 
07:45	30.7	30.7	30.7	94	29.2	0	0	---	0.00	30.191 
07:50	30.9	30.9	30.9	94	29.4	0	0	---	0.00	30.191 
07:55	31.0	31.0	31.0	94	29.5	0	0	---	0.00	30.191 
08:00	31.0	31.0	31.0	94	29.5	0	0	---	0.00	30.198 
08:05	31.2	31.2	31.2	94	29.7	0	0	---	0.00	30.198 
08:10	31.3	31.3	31.3	94	29.8	0	0	---	0.00	30.198 
08:15	31.3	31.3	31.3	94	29.8	0	0	---	0.00	30.203 
08:20	31.2	31.2	31.2	94	29.7	0	0	---	0.00	30.203 
08:25	31.0	31.0	31.0	94	29.5	0	0	---	0.00	30.203 
08:30	30.9	30.9	30.9	94	29.4	0	0	---	0.00	30.196 
08:35	31.0	31.0	31.0	94	29.5	0	0	---	0.00	30.196 
08:40	31.3	31.3	31.3	94	29.8	0	0	---	0.00	30.196 
08:45	31.6	31.6	31.6	94	30.1	0	0	---	0.00	30.204 
08:50	32.1	32.1	32.1	94	30.6	0	0	---	0.00	30.204 
08:55	32.4	32.4	32.4	95	31.1	0	0	---	0.00	30.204 
09:00	32.9	32.9	32.9	95	31.6	0	0	---	0.00	30.203 
09:05	33.2	33.2	33.2	95	31.9	0	0	---	0.00	30.203 
09:10	33.5	33.5	33.5	95	32.2	0	0	---	0.00	30.203 
09:15	34.0	34.0	34.0	95	32.7	0	0	---	0.00	30.207 
09:20	34.3	34.3	34.3	95	33.0	0	0	---	0.00	30.207 
09:25	34.7	34.7	34.7	95	33.4	0	0	---	0.00	30.207 
09:30	35.0	35.0	35.0	95	33.7	0	0	---	0.00	30.201 
09:35	35.3	35.3	35.3	95	34.0	0	0	---	0.00	30.201 
09:40	35.6	35.6	35.6	95	34.3	0	0	---	0.00	30.201 
09:45	35.9	35.9	35.9	95	34.6	0	0	---	0.00	30.199 
09:50	36.0	36.0	36.0	95	34.7	0	0	---	0.00	30.199 
09:55	36.3	36.3	36.3	95	35.0	0	0	---	0.00	30.199 
10:00	36.6	36.6	36.6	95	35.3	0	0	---	0.00	30.200 
10:05	36.9	36.9	36.9	95	35.6	0	0	---	0.00	30.200 
10:10	37.3	37.3	37.3	95	36.0	0	1	90	0.00	30.200 
10:15	37.8	37.8	37.8	95	36.5	0	2	90	0.00	30.206 
10:20	38.2	38.2	38.2	94	36.6	0	2	90	0.00	30.206 
10:25	38.6	38.6	38.6	94	37.0	0	1	90	0.00	30.206 
10:30	39.1	39.1	39.1	94	37.5	0	1	90	0.00	30.204 
10:35	39.3	39.3	39.3	93	37.4	0	0	---	0.00	30.204 
10:40	39.6	39.6	39.6	93	37.7	0	1	90	0.00	30.204 
10:45	39.9	39.9	39.9	92	37.8	0	0	---	0.00	30.205 
10:50	40.2	40.2	40.2	91	37.8	0	1	90	0.00	30.205 
10:55	40.6	40.6	40.6	90	37.9	0	1	90	0.00	30.205 
11:00	41.1	41.1	41.1	89	38.1	0	0	---	0.00	30.211 
11:05	41.5	41.5	41.5	87	37.9	0	0	---	0.00	30.211 
11:10	41.8	41.8	41.8	86	37.9	0	0	---	0.00	30.211 
11:15	42.2	42.2	42.2	84	37.7	0	1	90	0.00	30.214 
11:20	42.5	42.5	42.5	83	37.7	0	1	90	0.00	30.214 
11:25	42.8	42.8	42.8	81	37.4	0	1	90	0.00	30.214 
11:30	42.9	42.9	42.9	80	37.2	0	1	90	0.00	30.211 
11:35	43.3	43.3	43.3	79	37.2	0	2	90	0.00	30.211 
11:40	43.8	43.8	43.8	77	37.1	0	1	90	0.00	30.211 
11:45	43.9	43.9	43.9	76	36.8	0	2	90	0.00	30.204 
11:50	44.2	44.2	44.2	75	36.8	0	1	90	0.00	30.204 
11:55	44.3	44.3	44.3	74	36.5	0	1	90	0.00	30.204 
12:00	44.6	44.6	44.6	73	36.5	0	1	90	0.00	30.199 
12:05	44.8	44.8	44.8	73	36.7	0	1	90	0.00	30.199 
12:10	44.9	44.9	44.9	74	37.1	0	2	90	0.00	30.199 
12:15	45.2	45.2	45.2	73	37.1	1	3	22	0.00	30.194 
12:20	45.2	45.2	45.2	73	37.1	0	2	22	0.00	30.194 
12:25	45.2	45.2	45.2	73	37.1	1	2	22	0.00	30.194 
12:30	45.4	45.4	45.4	73	37.3	0	2	22	0.00	30.187 
12:35	45.5	45.5	45.5	73	37.4	0	2	22	0.00	30.187 
12:40	45.4	45.4	45.4	72	36.9	0	2	22	0.00	30.187 
12:45	45.4	45.4	45.4	72	36.9	0	1	22	0.00	30.173 
12:50	45.5	45.5	45.5	71	36.7	0	1	22	0.00	30.173 
12:55	45.5	45.5	45.5	71	36.7	0	1	22	0.00	30.173 
13:00	45.5	45.5	45.5	71	36.7	0	3	22	0.00	30.167 
13:05	45.7	45.7	45.7	70	36.5	0	1	22	0.00	30.167 
13:10	46.0	46.0	46.0	71	37.1	0	1	22	0.00	30.167 
13:15	46.1	46.1	46.1	70	36.9	0	3	0	0.00	30.167 
13:20	46.4	46.4	46.4	70	37.2	0	2	0	0.00	30.167 
13:25	46.5	46.5	46.5	69	36.9	0	2	0	0.00	30.167 
13:30	46.7	46.7	46.7	69	37.1	0	1	0	0.00	30.161 
13:35	46.8	46.8	46.8	69	37.2	0	2	0	0.00	30.161 
13:40	47.0	47.0	47.0	69	37.4	0	1	0	0.00	30.161 
13:45	47.1	47.1	47.1	69	37.5	0	1	0	0.00	30.152 
13:50	47.1	47.1	47.1	68	37.1	1	2	0	0.00	30.152 
13:55	47.0	47.0	47.0	67	36.6	1	4	0	0.00	30.152 
14:00	47.1	47.1	47.1	68	37.1	0	2	0	0.00	30.151 
14:05	47.1	47.1	47.1	68	37.1	1	4	0	0.00	30.151 
14:10	47.0	47.0	47.0	69	37.4	0	2	315	0.00	30.151 
14:15	47.1	47.1	47.1	69	37.5	0	2	315	0.00	30.145 
14:20	47.0	47.0	47.0	68	37.0	1	3	315	0.00	30.145 
14:25	47.0	47.0	47.0	69	37.4	0	2	292	0.00	30.145 
14:30	46.7	46.7	46.7	69	37.1	0	2	292	0.00	30.136 
14:35	46.4	46.4	46.4	69	36.8	0	2	292	0.00	30.136 
14:40	46.2	46.2	46.2	70	37.0	0	2	292	0.00	30.136 
14:45	46.1	46.1	46.1	71	37.2	0	1	292	0.00	30.135 
14:50	46.1	46.1	46.1	71	37.2	0	2	292	0.00	30.135 
14:55	46.0	46.0	46.0	71	37.1	0	1	292	0.00	30.135 
15:00	46.2	46.2	46.2	71	37.3	0	2	292	0.00	30.136 
15:05	46.4	46.4	46.4	71	37.5	0	2	292	0.00	30.136 
15:10	46.4	46.4	46.4	71	37.5	0	2	292	0.00	30.136 
15:15	46.4	46.4	46.4	70	37.2	0	2	292	0.00	30.135 
15:20	46.4	46.4	46.4	71	37.5	0	2	292	0.00	30.135 
15:25	46.1	46.1	46.1	70	36.9	1	2	292	0.00	30.135 
15:30	46.0	46.0	46.0	71	37.1	0	2	292	0.00	30.139 
15:35	46.0	46.0	46.0	70	36.8	1	2	292	0.00	30.139 
15:40	45.7	45.7	45.7	71	36.8	1	3	292	0.00	30.139 
15:45	45.4	45.4	45.4	72	36.9	1	3	292	0.00	30.150 
15:50	45.1	45.1	45.1	73	37.0	1	3	292	0.00	30.150 
15:55	44.9	44.9	44.9	73	36.8	1	2	292	0.00	30.150 
16:00	44.5	44.5	44.5	74	36.7	1	3	292	0.00	30.153 
16:05	44.3	44.3	44.3	75	36.9	0	2	292	0.00	30.153 
16:10	44.1	44.1	44.1	76	37.0	1	3	292	0.00	30.153 
16:15	43.8	43.8	43.8	77	37.1	0	2	292	0.00	30.159 
16:20	43.6	43.6	43.6	77	36.9	0	1	292	0.00	30.159 
16:25	43.3	43.3	43.3	77	36.6	0	0	---	0.00	30.159 
16:30	43.1	43.1	43.1	77	36.4	0	0	---	0.00	30.157 
16:35	42.8	42.8	42.8	78	36.4	0	0	---	0.00	30.157 
16:40	42.6	42.6	42.6	78	36.2	0	1	292	0.00	30.157 
16:45	42.5	42.5	42.5	79	36.5	0	0	---	0.00	30.163 
16:50	42.2	42.2	42.2	79	36.2	0	1	292	0.00	30.163 
16:55	41.9	41.9	41.9	80	36.2	0	1	292	0.00	30.163 
17:00	41.6	41.6	41.6	80	35.9	0	0	---	0.00	30.162 
17:05	41.2	41.2	41.2	81	35.8	0	0	---	0.00	30.162 
17:10	40.9	40.9	40.9	81	35.5	0	0	---	0.00	30.162 
17:15	40.6	40.6	40.6	81	35.2	0	0	---	0.00	30.159 
17:20	40.2	40.2	40.2	82	35.2	0	0	---	0.00	30.159 
17:25	39.9	39.9	39.9	82	34.9	0	0	---	0.00	30.159 
17:30	39.5	39.5	39.5	83	34.8	0	0	---	0.00	30.157 
17:35	39.2	39.2	39.2	83	34.5	0	0	---	0.00	30.157 
17:40	38.8	38.8	38.8	83	34.1	0	1	292	0.00	30.157 
17:45	38.5	38.5	38.5	84	34.1	0	0	---	0.00	30.158 
17:50	38.2	38.2	38.2	85	34.1	0	0	---	0.00	30.158 
17:55	37.9	37.9	37.9	85	33.8	0	0	---	0.00	30.158 
18:00	37.6	37.6	37.6	86	33.8	0	0	---	0.00	30.160 
18:05	37.3	37.3	37.3	86	33.5	0	0	---	0.00	30.160 
18:10	37.0	37.0	37.0	86	33.2	0	0	---	0.00	30.160 
18:15	36.9	36.9	36.9	87	33.4	0	0	---	0.00	30.163 
18:20	36.6	36.6	36.6	87	33.1	0	0	---	0.00	30.163 
18:25	36.6	36.6	36.6	88	33.4	0	0	---	0.00	30.163 
18:30	36.6	36.6	36.6	88	33.4	0	0	---	0.00	30.165 
18:35	36.8	36.8	36.8	89	33.9	0	1	292	0.00	30.165 
18:40	37.3	37.3	37.3	89	34.4	0	1	292	0.00	30.165 
18:45	37.6	37.6	37.6	89	34.7	0	1	292	0.00	30.162 
18:50	37.8	37.8	37.8	90	35.1	0	2	292	0.00	30.162 
18:55	38.0	38.0	38.0	89	35.1	0	2	292	0.00	30.162 
19:00	38.2	38.2	38.2	89	35.2	0	1	292	0.00	30.161 
19:05	38.3	38.3	38.3	89	35.3	0	1	292	0.00	30.161 
19:10	38.3	38.3	38.3	89	35.3	0	1	292	0.00	30.161 
19:15	38.5	38.5	38.5	89	35.5	0	2	292	0.00	30.152 
19:20	38.5	38.5	38.5	89	35.5	0	1	292	0.00	30.152 
19:25	38.5	38.5	38.5	89	35.5	0	1	292	0.00	30.152 
19:30	38.5	38.5	38.5	89	35.5	0	1	292	0.00	30.142 
19:35	38.5	38.5	38.5	89	35.5	0	1	292	0.00	30.142 
19:40	38.5	38.5	38.5	88	35.3	0	1	292	0.00	30.142 
19:45	38.5	38.5	38.5	88	35.3	0	2	292	0.00	30.131 
19:50	38.3	38.3	38.3	88	35.1	0	3	0	0.00	30.131 
19:55	38.3	38.3	38.3	88	35.1	0	2	45	0.00	30.131 
20:00	38.2	38.2	38.2	88	35.0	0	0	---	0.00	30.134 
20:05	38.2	38.2	38.2	88	35.0	0	2	45	0.00	30.134 
20:10	38.0	38.0	38.0	89	35.1	0	1	45	0.00	30.134 
20:15	38.0	38.0	38.0	89	35.1	0	1	45	0.00	30.133 
20:20	38.0	38.0	38.0	89	35.1	0	2	338	0.00	30.133 
20:25	37.9	37.9	37.9	89	35.0	0	2	338	0.00	30.133 
20:30	37.9	37.9	37.9	89	35.0	0	1	338	0.00	30.144 
20:35	37.8	37.8	37.8	89	34.9	0	1	338	0.00	30.144 
20:40	37.6	37.6	37.6	89	34.7	0	1	338	0.00	30.144 
20:45	37.5	37.5	37.5	89	34.6	0	1	338	0.00	30.135 
20:50	37.3	37.3	37.3	90	34.6	0	1	338	0.00	30.135 
20:55	37.3	37.3	37.3	90	34.6	0	0	---	0.00	30.135 
21:00	37.3	37.3	37.3	90	34.6	1	5	248	0.00	30.138 
21:05	37.3	37.3	37.3	90	34.6	0	1	248	0.00	30.138 
21:10	37.3	37.3	37.3	90	34.6	0	1	248	0.00	30.138 
21:15	37.3	37.3	37.3	90	34.6	0	2	248	0.00	30.131 
21:20	37.5	37.5	37.5	90	34.8	0	2	248	0.00	30.131 
21:25	37.5	37.5	37.5	90	34.8	0	1	248	0.00	30.131 
21:30	37.6	37.6	37.6	90	34.9	0	3	248	0.00	30.138 
21:35	37.6	37.6	37.6	90	34.9	0	1	248	0.00	30.138 
21:40	37.8	37.8	37.8	90	35.1	0	2	248	0.00	30.138 
21:45	37.8	37.8	37.8	90	35.1	1	3	248	0.00	30.138 
21:50	37.8	37.8	37.8	90	35.1	0	2	248	0.00	30.138 
21:55	37.8	37.8	37.8	90	35.1	0	2	248	0.00	30.138 
22:00	37.8	37.8	37.8	90	35.1	0	1	248	0.00	30.136 
22:05	37.8	37.8	37.8	89	34.9	0	1	248	0.00	30.136 
22:10	37.8	37.8	37.8	89	34.9	0	1	248	0.00	30.136 
22:15	37.8	37.8	37.8	89	34.9	0	1	248	0.00	30.134 
22:20	37.8	37.8	37.8	89	34.9	0	1	248	0.00	30.134 
22:25	37.8	37.8	37.8	89	34.9	0	2	248	0.00	30.134 
22:30	37.8	37.8	37.8	89	34.9	0	1	248	0.00	30.123 
22:35	37.8	37.8	37.8	89	34.9	0	0	---	0.00	30.123 
22:40	37.8	37.8	37.8	89	34.9	0	1	248	0.00	30.123 
22:45	37.8	37.8	37.8	89	34.9	0	2	248	0.00	30.121 
22:50	37.8	37.8	37.8	89	34.9	0	1	248	0.00	30.121 
22:55	37.8	37.8	37.8	89	34.9	0	1	248	0.00	30.121 
23:00	37.8	37.8	37.8	89	34.9	0	1	248	0.00	30.113 
23:05	37.8	37.8	37.8	89	34.9	0	1	248	0.00	30.113 
23:10	37.8	37.8	37.8	89	34.9	0	0	---	0.00	30.113 
23:15	37.8	37.8	37.8	89	34.9	0	0	---	0.00	30.110 
23:20	37.8	37.8	37.8	89	34.9	0	0	---	0.00	30.110 
23:25	37.9	37.9	37.9	89	35.0	0	0	---	0.00	30.110 
23:30	37.9	37.9	37.9	90	35.2	1	3	248	0.00	30.114 
23:35	37.9	37.9	37.9	90	35.2	0	2	248	0.00	30.114 
23:40	38.0	38.0	38.0	90	35.3	0	1	248	0.00	30.114 
23:45	38.0	38.0	38.0	90	35.3	0	1	248	0.00	30.104 
23:50	38.0	38.0	38.0	90	35.3	0	1	248	0.00	30.104 
23:55	38.0	38.0	38.0	90	35.3	0	1	248	0.00	30.104 

CoCoRaHS
IN-AL-39
A2 Web Hosting
Creative Commons License
GoDaddy
search engine by freefind advanced

loaded 2018-11-17 23:35:53 • last modified 2010-11-18 10:43:29
Privacy PolicyDisclaimer
• wx.awcolley.com is powered by PmWiki v.2002016 •
• all content (unless otherwise noted) © 2018 A W Colley